IAD weather

Washington Dulles International Airport
Washington, District of Columbia, United States

Public forecast

Using degrees Fahrenheit for public forecast. Weather courtesy of forecast.io.

METAR (pilot weather report)

Retrieved 2017/03/24 20:52 UTC (59 minutes ago):

KIAD 242052Z 19010KT 10SM FEW100 BKN150 OVC250 16/02 A3021

TAF (pilot weather forecast)

Retrieved 2017/03/24 18:36 UTC (3 hours ago):

TAF KIAD 241732Z 2418/2524 21014KT P6SM SCT080 FM250000 20008KT P6SM BKN140 FM250700 21004KT P6SM BKN120